sensor_id;sensor_type;location;lat;lon;timestamp;P1;durP1;ratioP1;P2;durP2;ratioP2
36971;SDS011;40554;52.122;20.678;2022-12-07T00:01:17;93.05;;;45.28;;
36971;SDS011;40554;52.122;20.678;2022-12-07T00:03:41;86.90;;;42.20;;
36971;SDS011;40554;52.122;20.678;2022-12-07T00:06:00;84.42;;;42.05;;
36971;SDS011;40554;52.122;20.678;2022-12-07T00:08:18;71.70;;;37.10;;
36971;SDS011;40554;52.122;20.678;2022-12-07T00:10:34;74.47;;;38.48;;
36971;SDS011;40554;52.122;20.678;2022-12-07T00:12:50;64.85;;;34.78;;
36971;SDS011;40554;52.122;20.678;2022-12-07T00:15:07;62.35;;;32.70;;
36971;SDS011;40554;52.122;20.678;2022-12-07T00:17:24;62.70;;;32.10;;
36971;SDS011;40554;52.122;20.678;2022-12-07T00:19:40;61.28;;;31.97;;
36971;SDS011;40554;52.122;20.678;2022-12-07T00:21:57;55.95;;;31.65;;
36971;SDS011;40554;52.122;20.678;2022-12-07T00:24:13;57.85;;;30.68;;
36971;SDS011;40554;52.122;20.678;2022-12-07T00:26:30;45.25;;;26.65;;
36971;SDS011;40554;52.122;20.678;2022-12-07T00:28:54;42.90;;;22.37;;
36971;SDS011;40554;52.122;20.678;2022-12-07T00:31:11;36.68;;;21.35;;
36971;SDS011;40554;52.122;20.678;2022-12-07T00:33:29;36.25;;;19.17;;
36971;SDS011;40554;52.122;20.678;2022-12-07T00:35:45;30.77;;;17.20;;
36971;SDS011;40554;52.122;20.678;2022-12-07T00:38:01;30.27;;;16.77;;
36971;SDS011;40554;52.122;20.678;2022-12-07T00:40:17;32.17;;;16.50;;
36971;SDS011;40554;52.122;20.678;2022-12-07T00:42:34;29.30;;;16.07;;
36971;SDS011;40554;52.122;20.678;2022-12-07T00:44:50;26.40;;;14.85;;
36971;SDS011;40554;52.122;20.678;2022-12-07T00:47:06;24.32;;;14.35;;
36971;SDS011;40554;52.122;20.678;2022-12-07T00:49:22;27.05;;;15.72;;
36971;SDS011;40554;52.122;20.678;2022-12-07T00:51:39;24.60;;;13.95;;
36971;SDS011;40554;52.122;20.678;2022-12-07T00:53:55;26.57;;;13.28;;
36971;SDS011;40554;52.122;20.678;2022-12-07T00:56:12;23.20;;;13.90;;
36971;SDS011;40554;52.122;20.678;2022-12-07T00:58:31;28.07;;;12.75;;
36971;SDS011;40554;52.122;20.678;2022-12-07T01:00:48;22.42;;;13.40;;
36971;SDS011;40554;52.122;20.678;2022-12-07T01:03:05;27.32;;;14.78;;
36971;SDS011;40554;52.122;20.678;2022-12-07T01:05:22;26.85;;;13.70;;
36971;SDS011;40554;52.122;20.678;2022-12-07T01:07:39;27.70;;;14.87;;
36971;SDS011;40554;52.122;20.678;2022-12-07T01:09:55;24.82;;;14.07;;
36971;SDS011;40554;52.122;20.678;2022-12-07T01:12:11;23.38;;;13.32;;
36971;SDS011;40554;52.122;20.678;2022-12-07T01:14:27;25.05;;;13.35;;
36971;SDS011;40554;52.122;20.678;2022-12-07T01:16:44;23.27;;;14.03;;
36971;SDS011;40554;52.122;20.678;2022-12-07T01:19:00;22.13;;;12.50;;
36971;SDS011;40554;52.122;20.678;2022-12-07T01:21:21;24.52;;;13.53;;
36971;SDS011;40554;52.122;20.678;2022-12-07T01:23:41;24.55;;;13.28;;
36971;SDS011;40554;52.122;20.678;2022-12-07T01:25:58;21.80;;;13.35;;
36971;SDS011;40554;52.122;20.678;2022-12-07T01:28:17;23.55;;;13.62;;
36971;SDS011;40554;52.122;20.678;2022-12-07T01:30:33;23.77;;;12.75;;
36971;SDS011;40554;52.122;20.678;2022-12-07T01:32:50;21.68;;;12.58;;
36971;SDS011;40554;52.122;20.678;2022-12-07T01:35:06;25.08;;;12.93;;
36971;SDS011;40554;52.122;20.678;2022-12-07T01:37:23;21.82;;;12.82;;
36971;SDS011;40554;52.122;20.678;2022-12-07T01:39:39;24.85;;;12.35;;
36971;SDS011;40554;52.122;20.678;2022-12-07T01:41:57;25.02;;;12.78;;
36971;SDS011;40554;52.122;20.678;2022-12-07T01:46:40;25.48;;;14.03;;
36971;SDS011;40554;52.122;20.678;2022-12-07T01:49:00;26.95;;;14.13;;
36971;SDS011;40554;52.122;20.678;2022-12-07T01:51:19;26.55;;;14.23;;
36971;SDS011;40554;52.122;20.678;2022-12-07T01:53:36;27.82;;;15.08;;
36971;SDS011;40554;52.122;20.678;2022-12-07T01:55:57;26.00;;;14.47;;
36971;SDS011;40554;52.122;20.678;2022-12-07T01:58:15;23.15;;;13.40;;
36971;SDS011;40554;52.122;20.678;2022-12-07T02:00:32;21.65;;;12.65;;
36971;SDS011;40554;52.122;20.678;2022-12-07T02:02:57;21.77;;;12.88;;
36971;SDS011;40554;52.122;20.678;2022-12-07T02:05:19;18.17;;;12.23;;
36971;SDS011;40554;52.122;20.678;2022-12-07T02:07:38;16.70;;;10.63;;
36971;SDS011;40554;52.122;20.678;2022-12-07T02:09:55;14.98;;;9.68;;
36971;SDS011;40554;52.122;20.678;2022-12-07T02:12:12;15.80;;;9.93;;
36971;SDS011;40554;52.122;20.678;2022-12-07T02:14:28;19.55;;;11.10;;
36971;SDS011;40554;52.122;20.678;2022-12-07T02:20:17;14.87;;;8.95;;
36971;SDS011;40554;52.122;20.678;2022-12-07T02:24:42;13.48;;;8.60;;
36971;SDS011;40554;52.122;20.678;2022-12-07T02:32:26;12.00;;;8.13;;
36971;SDS011;40554;52.122;20.678;2022-12-07T02:35:03;12.50;;;8.23;;
36971;SDS011;40554;52.122;20.678;2022-12-07T02:37:33;13.98;;;7.65;;
36971;SDS011;40554;52.122;20.678;2022-12-07T02:39:51;11.95;;;7.92;;
36971;SDS011;40554;52.122;20.678;2022-12-07T02:42:16;13.20;;;7.23;;
36971;SDS011;40554;52.122;20.678;2022-12-07T02:44:37;14.93;;;7.78;;
36971;SDS011;40554;52.122;20.678;2022-12-07T02:46:55;12.35;;;7.97;;
36971;SDS011;40554;52.122;20.678;2022-12-07T02:49:17;13.72;;;7.92;;
36971;SDS011;40554;52.122;20.678;2022-12-07T02:51:38;12.33;;;7.97;;
36971;SDS011;40554;52.122;20.678;2022-12-07T02:53:59;11.38;;;7.35;;
36971;SDS011;40554;52.122;20.678;2022-12-07T02:56:27;11.75;;;8.10;;
36971;SDS011;40554;52.122;20.678;2022-12-07T02:59:08;11.80;;;7.47;;
36971;SDS011;40554;52.122;20.678;2022-12-07T03:05:05;10.70;;;7.30;;
36971;SDS011;40554;52.122;20.678;2022-12-07T03:13:23;12.43;;;8.05;;
36971;SDS011;40554;52.122;20.678;2022-12-07T03:16:25;12.35;;;8.10;;
36971;SDS011;40554;52.122;20.678;2022-12-07T03:18:22;14.95;;;7.55;;
36971;SDS011;40554;52.122;20.678;2022-12-07T03:20:42;12.82;;;8.43;;
36971;SDS011;40554;52.122;20.678;2022-12-07T03:23:02;11.90;;;7.55;;
36971;SDS011;40554;52.122;20.678;2022-12-07T03:25:21;10.85;;;7.03;;
36971;SDS011;40554;52.122;20.678;2022-12-07T03:30:17;13.05;;;9.15;;
36971;SDS011;40554;52.122;20.678;2022-12-07T03:37:52;15.70;;;9.70;;
36971;SDS011;40554;52.122;20.678;2022-12-07T03:40:16;13.98;;;8.55;;
36971;SDS011;40554;52.122;20.678;2022-12-07T03:42:48;18.40;;;10.53;;
36971;SDS011;40554;52.122;20.678;2022-12-07T03:45:07;16.60;;;11.10;;
36971;SDS011;40554;52.122;20.678;2022-12-07T03:50:00;20.52;;;12.85;;
36971;SDS011;40554;52.122;20.678;2022-12-07T03:57:33;20.62;;;12.30;;
36971;SDS011;40554;52.122;20.678;2022-12-07T03:59:52;13.95;;;9.95;;
36971;SDS011;40554;52.122;20.678;2022-12-07T04:02:11;14.58;;;9.70;;
36971;SDS011;40554;52.122;20.678;2022-12-07T04:04:29;16.77;;;10.65;;
36971;SDS011;40554;52.122;20.678;2022-12-07T04:06:47;14.50;;;9.45;;
36971;SDS011;40554;52.122;20.678;2022-12-07T04:09:03;16.45;;;11.68;;
36971;SDS011;40554;52.122;20.678;2022-12-07T04:11:19;19.02;;;12.43;;
36971;SDS011;40554;52.122;20.678;2022-12-07T04:13:36;20.85;;;12.07;;
36971;SDS011;40554;52.122;20.678;2022-12-07T04:15:54;17.32;;;10.60;;
36971;SDS011;40554;52.122;20.678;2022-12-07T04:18:10;17.15;;;11.48;;
36971;SDS011;40554;52.122;20.678;2022-12-07T04:20:26;17.90;;;12.30;;
36971;SDS011;40554;52.122;20.678;2022-12-07T04:22:42;17.37;;;11.60;;
36971;SDS011;40554;52.122;20.678;2022-12-07T04:24:59;17.25;;;13.75;;
36971;SDS011;40554;52.122;20.678;2022-12-07T04:27:15;20.95;;;13.83;;
36971;SDS011;40554;52.122;20.678;2022-12-07T04:29:32;19.98;;;13.55;;
36971;SDS011;40554;52.122;20.678;2022-12-07T04:31:48;20.52;;;14.18;;
36971;SDS011;40554;52.122;20.678;2022-12-07T04:34:05;19.23;;;13.35;;
36971;SDS011;40554;52.122;20.678;2022-12-07T04:36:22;16.30;;;11.85;;
36971;SDS011;40554;52.122;20.678;2022-12-07T04:38:38;18.25;;;11.55;;
36971;SDS011;40554;52.122;20.678;2022-12-07T04:40:55;15.63;;;9.28;;
36971;SDS011;40554;52.122;20.678;2022-12-07T04:43:11;14.87;;;9.20;;
36971;SDS011;40554;52.122;20.678;2022-12-07T04:45:28;19.30;;;11.18;;
36971;SDS011;40554;52.122;20.678;2022-12-07T04:47:44;18.32;;;11.65;;
36971;SDS011;40554;52.122;20.678;2022-12-07T04:50:00;17.73;;;12.25;;
36971;SDS011;40554;52.122;20.678;2022-12-07T04:52:17;18.42;;;11.55;;
36971;SDS011;40554;52.122;20.678;2022-12-07T04:54:33;15.05;;;10.58;;
36971;SDS011;40554;52.122;20.678;2022-12-07T04:56:50;19.00;;;10.98;;
36971;SDS011;40554;52.122;20.678;2022-12-07T04:59:06;15.35;;;10.10;;
36971;SDS011;40554;52.122;20.678;2022-12-07T05:01:23;19.87;;;12.23;;
36971;SDS011;40554;52.122;20.678;2022-12-07T05:03:40;19.12;;;12.60;;
36971;SDS011;40554;52.122;20.678;2022-12-07T05:05:56;18.92;;;11.78;;
36971;SDS011;40554;52.122;20.678;2022-12-07T05:08:12;20.65;;;12.85;;
36971;SDS011;40554;52.122;20.678;2022-12-07T05:10:28;20.25;;;13.10;;
36971;SDS011;40554;52.122;20.678;2022-12-07T05:12:45;21.27;;;12.33;;
36971;SDS011;40554;52.122;20.678;2022-12-07T05:15:01;23.92;;;12.93;;
36971;SDS011;40554;52.122;20.678;2022-12-07T05:17:18;27.45;;;15.60;;
36971;SDS011;40554;52.122;20.678;2022-12-07T05:19:34;23.20;;;14.60;;
36971;SDS011;40554;52.122;20.678;2022-12-07T05:21:50;19.12;;;12.20;;
36971;SDS011;40554;52.122;20.678;2022-12-07T05:24:07;20.68;;;12.63;;
36971;SDS011;40554;52.122;20.678;2022-12-07T05:26:26;19.10;;;11.90;;
36971;SDS011;40554;52.122;20.678;2022-12-07T05:28:43;19.02;;;12.37;;
36971;SDS011;40554;52.122;20.678;2022-12-07T05:30:59;21.55;;;14.13;;
36971;SDS011;40554;52.122;20.678;2022-12-07T05:33:16;21.00;;;13.40;;
36971;SDS011;40554;52.122;20.678;2022-12-07T05:35:32;22.77;;;14.68;;
36971;SDS011;40554;52.122;20.678;2022-12-07T05:37:48;23.62;;;14.38;;
36971;SDS011;40554;52.122;20.678;2022-12-07T05:40:05;22.65;;;15.00;;
36971;SDS011;40554;52.122;20.678;2022-12-07T05:42:23;24.87;;;15.32;;
36971;SDS011;40554;52.122;20.678;2022-12-07T05:44:45;24.95;;;16.15;;
36971;SDS011;40554;52.122;20.678;2022-12-07T05:47:00;26.12;;;15.55;;
36971;SDS011;40554;52.122;20.678;2022-12-07T05:49:17;25.12;;;15.45;;
36971;SDS011;40554;52.122;20.678;2022-12-07T05:51:33;24.82;;;16.23;;
36971;SDS011;40554;52.122;20.678;2022-12-07T05:53:50;22.13;;;14.33;;
36971;SDS011;40554;52.122;20.678;2022-12-07T05:56:06;24.82;;;16.23;;
36971;SDS011;40554;52.122;20.678;2022-12-07T05:58:22;23.57;;;15.13;;
36971;SDS011;40554;52.122;20.678;2022-12-07T06:00:57;27.05;;;17.27;;
36971;SDS011;40554;52.122;20.678;2022-12-07T06:03:13;25.27;;;15.53;;
36971;SDS011;40554;52.122;20.678;2022-12-07T06:05:30;26.75;;;16.77;;
36971;SDS011;40554;52.122;20.678;2022-12-07T06:07:46;28.67;;;17.48;;
36971;SDS011;40554;52.122;20.678;2022-12-07T06:10:02;29.75;;;17.62;;
36971;SDS011;40554;52.122;20.678;2022-12-07T06:12:19;29.30;;;18.52;;
36971;SDS011;40554;52.122;20.678;2022-12-07T06:14:53;27.20;;;16.57;;
36971;SDS011;40554;52.122;20.678;2022-12-07T06:17:09;28.75;;;16.65;;
36971;SDS011;40554;52.122;20.678;2022-12-07T06:19:27;31.80;;;18.00;;
36971;SDS011;40554;52.122;20.678;2022-12-07T06:21:43;29.45;;;16.85;;
36971;SDS011;40554;52.122;20.678;2022-12-07T06:24:00;29.55;;;17.25;;
36971;SDS011;40554;52.122;20.678;2022-12-07T06:26:17;27.70;;;17.67;;
36971;SDS011;40554;52.122;20.678;2022-12-07T06:28:33;31.68;;;17.37;;
36971;SDS011;40554;52.122;20.678;2022-12-07T06:30:56;35.08;;;19.27;;
36971;SDS011;40554;52.122;20.678;2022-12-07T06:33:13;31.10;;;18.82;;
36971;SDS011;40554;52.122;20.678;2022-12-07T06:35:29;33.40;;;19.55;;
36971;SDS011;40554;52.122;20.678;2022-12-07T06:37:47;30.05;;;18.20;;
36971;SDS011;40554;52.122;20.678;2022-12-07T06:40:04;29.75;;;18.73;;
36971;SDS011;40554;52.122;20.678;2022-12-07T06:42:22;33.33;;;18.02;;
36971;SDS011;40554;52.122;20.678;2022-12-07T06:44:38;30.45;;;17.00;;
36971;SDS011;40554;52.122;20.678;2022-12-07T06:46:55;32.78;;;19.73;;
36971;SDS011;40554;52.122;20.678;2022-12-07T06:49:11;29.57;;;16.75;;
36971;SDS011;40554;52.122;20.678;2022-12-07T06:51:27;25.40;;;14.98;;
36971;SDS011;40554;52.122;20.678;2022-12-07T06:53:44;22.45;;;13.50;;
36971;SDS011;40554;52.122;20.678;2022-12-07T06:56:00;22.52;;;12.43;;
36971;SDS011;40554;52.122;20.678;2022-12-07T06:58:16;21.48;;;12.25;;
36971;SDS011;40554;52.122;20.678;2022-12-07T07:00:33;21.35;;;12.95;;
36971;SDS011;40554;52.122;20.678;2022-12-07T07:02:50;24.40;;;13.13;;
36971;SDS011;40554;52.122;20.678;2022-12-07T07:05:06;62.80;;;27.90;;
36971;SDS011;40554;52.122;20.678;2022-12-07T07:07:23;524.17;;;213.47;;
36971;SDS011;40554;52.122;20.678;2022-12-07T07:09:39;397.95;;;155.32;;
36971;SDS011;40554;52.122;20.678;2022-12-07T07:11:56;135.15;;;65.80;;
36971;SDS011;40554;52.122;20.678;2022-12-07T07:14:12;49.77;;;28.83;;
36971;SDS011;40554;52.122;20.678;2022-12-07T07:16:30;42.95;;;30.17;;
36971;SDS011;40554;52.122;20.678;2022-12-07T07:18:47;45.98;;;28.38;;
36971;SDS011;40554;52.122;20.678;2022-12-07T07:21:03;64.50;;;39.40;;
36971;SDS011;40554;52.122;20.678;2022-12-07T07:23:20;46.10;;;30.37;;
36971;SDS011;40554;52.122;20.678;2022-12-07T07:25:37;25.35;;;15.85;;
36971;SDS011;40554;52.122;20.678;2022-12-07T07:27:53;20.27;;;13.13;;
36971;SDS011;40554;52.122;20.678;2022-12-07T07:30:09;24.72;;;13.35;;
36971;SDS011;40554;52.122;20.678;2022-12-07T07:32:26;23.15;;;13.38;;
36971;SDS011;40554;52.122;20.678;2022-12-07T07:34:43;18.00;;;11.90;;
36971;SDS011;40554;52.122;20.678;2022-12-07T07:36:59;19.45;;;12.07;;
36971;SDS011;40554;52.122;20.678;2022-12-07T07:39:16;23.55;;;12.95;;
36971;SDS011;40554;52.122;20.678;2022-12-07T07:41:32;22.32;;;14.53;;
36971;SDS011;40554;52.122;20.678;2022-12-07T07:43:48;23.25;;;14.23;;
36971;SDS011;40554;52.122;20.678;2022-12-07T07:46:05;20.70;;;13.25;;
36971;SDS011;40554;52.122;20.678;2022-12-07T07:48:21;23.57;;;13.68;;
36971;SDS011;40554;52.122;20.678;2022-12-07T07:50:39;22.45;;;14.87;;
36971;SDS011;40554;52.122;20.678;2022-12-07T07:52:56;22.58;;;13.08;;
36971;SDS011;40554;52.122;20.678;2022-12-07T07:55:13;22.22;;;12.75;;
36971;SDS011;40554;52.122;20.678;2022-12-07T07:57:30;22.15;;;13.72;;
36971;SDS011;40554;52.122;20.678;2022-12-07T07:59:46;25.97;;;13.88;;
36971;SDS011;40554;52.122;20.678;2022-12-07T08:02:02;25.68;;;15.83;;
36971;SDS011;40554;52.122;20.678;2022-12-07T08:04:18;27.95;;;15.48;;
36971;SDS011;40554;52.122;20.678;2022-12-07T08:06:35;41.80;;;23.62;;
36971;SDS011;40554;52.122;20.678;2022-12-07T08:08:51;40.30;;;24.92;;
36971;SDS011;40554;52.122;20.678;2022-12-07T08:11:08;35.38;;;19.45;;
36971;SDS011;40554;52.122;20.678;2022-12-07T08:13:25;37.08;;;19.98;;
36971;SDS011;40554;52.122;20.678;2022-12-07T08:15:43;30.52;;;16.02;;
36971;SDS011;40554;52.122;20.678;2022-12-07T08:18:02;27.85;;;15.70;;
36971;SDS011;40554;52.122;20.678;2022-12-07T08:20:20;43.50;;;25.77;;
36971;SDS011;40554;52.122;20.678;2022-12-07T08:22:37;33.85;;;20.90;;
36971;SDS011;40554;52.122;20.678;2022-12-07T08:24:53;33.90;;;21.48;;
36971;SDS011;40554;52.122;20.678;2022-12-07T08:27:09;38.33;;;19.67;;
36971;SDS011;40554;52.122;20.678;2022-12-07T08:29:25;36.98;;;22.67;;
36971;SDS011;40554;52.122;20.678;2022-12-07T08:31:43;36.77;;;21.40;;
36971;SDS011;40554;52.122;20.678;2022-12-07T08:34:00;33.38;;;16.02;;
36971;SDS011;40554;52.122;20.678;2022-12-07T08:36:16;28.17;;;15.23;;
36971;SDS011;40554;52.122;20.678;2022-12-07T08:38:34;32.03;;;16.27;;
36971;SDS011;40554;52.122;20.678;2022-12-07T08:44:21;28.67;;;14.25;;
36971;SDS011;40554;52.122;20.678;2022-12-07T08:50:04;27.98;;;13.58;;
36971;SDS011;40554;52.122;20.678;2022-12-07T08:52:33;30.40;;;14.60;;
36971;SDS011;40554;52.122;20.678;2022-12-07T08:54:53;32.90;;;16.40;;
36971;SDS011;40554;52.122;20.678;2022-12-07T08:57:14;30.32;;;16.55;;
36971;SDS011;40554;52.122;20.678;2022-12-07T08:59:39;30.17;;;14.63;;
36971;SDS011;40554;52.122;20.678;2022-12-07T09:02:20;29.72;;;15.35;;
36971;SDS011;40554;52.122;20.678;2022-12-07T09:04:48;32.23;;;16.93;;
36971;SDS011;40554;52.122;20.678;2022-12-07T09:07:19;29.20;;;14.40;;
36971;SDS011;40554;52.122;20.678;2022-12-07T09:09:42;32.93;;;15.58;;
36971;SDS011;40554;52.122;20.678;2022-12-07T09:11:59;33.73;;;16.67;;
36971;SDS011;40554;52.122;20.678;2022-12-07T09:14:17;32.23;;;16.40;;
36971;SDS011;40554;52.122;20.678;2022-12-07T09:16:36;34.05;;;16.27;;
36971;SDS011;40554;52.122;20.678;2022-12-07T09:18:52;33.53;;;15.98;;
36971;SDS011;40554;52.122;20.678;2022-12-07T09:21:08;31.73;;;15.53;;
36971;SDS011;40554;52.122;20.678;2022-12-07T09:23:25;28.50;;;14.33;;
36971;SDS011;40554;52.122;20.678;2022-12-07T09:25:41;27.60;;;14.98;;
36971;SDS011;40554;52.122;20.678;2022-12-07T09:28:00;29.02;;;15.13;;
36971;SDS011;40554;52.122;20.678;2022-12-07T09:30:21;32.63;;;14.80;;
36971;SDS011;40554;52.122;20.678;2022-12-07T09:32:38;31.77;;;14.85;;
36971;SDS011;40554;52.122;20.678;2022-12-07T09:40:52;27.27;;;14.20;;
36971;SDS011;40554;52.122;20.678;2022-12-07T09:43:14;27.07;;;14.28;;
36971;SDS011;40554;52.122;20.678;2022-12-07T09:46:02;29.48;;;14.75;;
36971;SDS011;40554;52.122;20.678;2022-12-07T09:48:20;33.15;;;16.77;;
36971;SDS011;40554;52.122;20.678;2022-12-07T09:50:41;23.95;;;13.05;;
36971;SDS011;40554;52.122;20.678;2022-12-07T09:53:08;27.15;;;12.82;;
36971;SDS011;40554;52.122;20.678;2022-12-07T09:55:29;31.75;;;15.08;;
36971;SDS011;40554;52.122;20.678;2022-12-07T09:57:48;28.38;;;14.40;;
36971;SDS011;40554;52.122;20.678;2022-12-07T10:00:10;28.52;;;15.15;;
36971;SDS011;40554;52.122;20.678;2022-12-07T10:02:35;27.05;;;14.83;;
36971;SDS011;40554;52.122;20.678;2022-12-07T10:04:57;25.82;;;13.43;;
36971;SDS011;40554;52.122;20.678;2022-12-07T10:07:15;35.15;;;15.70;;
36971;SDS011;40554;52.122;20.678;2022-12-07T10:09:31;31.17;;;16.75;;
36971;SDS011;40554;52.122;20.678;2022-12-07T10:12:06;49.05;;;22.35;;
36971;SDS011;40554;52.122;20.678;2022-12-07T10:14:30;37.85;;;17.50;;
36971;SDS011;40554;52.122;20.678;2022-12-07T10:16:49;76.35;;;31.20;;
36971;SDS011;40554;52.122;20.678;2022-12-07T10:19:19;38.78;;;19.15;;
36971;SDS011;40554;52.122;20.678;2022-12-07T10:21:36;27.00;;;14.90;;
36971;SDS011;40554;52.122;20.678;2022-12-07T10:24:05;24.67;;;14.15;;
36971;SDS011;40554;52.122;20.678;2022-12-07T10:26:33;41.15;;;19.48;;
36971;SDS011;40554;52.122;20.678;2022-12-07T10:28:58;57.55;;;26.05;;
36971;SDS011;40554;52.122;20.678;2022-12-07T10:31:17;39.00;;;19.07;;
36971;SDS011;40554;52.122;20.678;2022-12-07T10:33:58;32.30;;;18.87;;
36971;SDS011;40554;52.122;20.678;2022-12-07T10:38:53;30.08;;;17.05;;
36971;SDS011;40554;52.122;20.678;2022-12-07T10:41:16;26.52;;;15.20;;
36971;SDS011;40554;52.122;20.678;2022-12-07T10:43:34;27.15;;;16.02;;
36971;SDS011;40554;52.122;20.678;2022-12-07T10:51:17;23.70;;;14.90;;
36971;SDS011;40554;52.122;20.678;2022-12-07T10:54:08;26.20;;;15.45;;
36971;SDS011;40554;52.122;20.678;2022-12-07T10:56:55;30.45;;;16.55;;
36971;SDS011;40554;52.122;20.678;2022-12-07T10:59:52;23.80;;;14.55;;
36971;SDS011;40554;52.122;20.678;2022-12-07T11:10:42;26.55;;;15.90;;
36971;SDS011;40554;52.122;20.678;2022-12-07T11:15:51;21.12;;;13.08;;
36971;SDS011;40554;52.122;20.678;2022-12-07T11:18:22;21.50;;;13.05;;
36971;SDS011;40554;52.122;20.678;2022-12-07T11:32:05;25.12;;;14.40;;
36971;SDS011;40554;52.122;20.678;2022-12-07T11:37:36;26.40;;;16.87;;
36971;SDS011;40554;52.122;20.678;2022-12-07T11:39:58;25.27;;;14.33;;
36971;SDS011;40554;52.122;20.678;2022-12-07T11:42:29;23.73;;;13.60;;
36971;SDS011;40554;52.122;20.678;2022-12-07T11:44:55;26.73;;;16.27;;
36971;SDS011;40554;52.122;20.678;2022-12-07T11:52:48;27.95;;;16.42;;
36971;SDS011;40554;52.122;20.678;2022-12-07T11:55:19;31.42;;;17.77;;
36971;SDS011;40554;52.122;20.678;2022-12-07T11:58:09;30.77;;;17.95;;
36971;SDS011;40554;52.122;20.678;2022-12-07T12:00:22;29.50;;;16.65;;
36971;SDS011;40554;52.122;20.678;2022-12-07T12:02:41;28.20;;;16.23;;
36971;SDS011;40554;52.122;20.678;2022-12-07T12:05:19;29.37;;;18.67;;
36971;SDS011;40554;52.122;20.678;2022-12-07T12:07:40;26.65;;;15.40;;
36971;SDS011;40554;52.122;20.678;2022-12-07T12:10:13;24.07;;;13.62;;
36971;SDS011;40554;52.122;20.678;2022-12-07T12:13:25;28.10;;;15.10;;
36971;SDS011;40554;52.122;20.678;2022-12-07T12:21:02;22.77;;;14.65;;
36971;SDS011;40554;52.122;20.678;2022-12-07T12:23:35;21.70;;;12.15;;
36971;SDS011;40554;52.122;20.678;2022-12-07T12:26:20;19.37;;;12.45;;
36971;SDS011;40554;52.122;20.678;2022-12-07T12:28:50;20.90;;;12.15;;
36971;SDS011;40554;52.122;20.678;2022-12-07T12:31:16;24.95;;;15.48;;
36971;SDS011;40554;52.122;20.678;2022-12-07T12:33:43;23.27;;;14.30;;
36971;SDS011;40554;52.122;20.678;2022-12-07T12:46:38;23.55;;;13.80;;
36971;SDS011;40554;52.122;20.678;2022-12-07T12:51:42;22.00;;;13.05;;
36971;SDS011;40554;52.122;20.678;2022-12-07T12:54:05;20.48;;;12.50;;
36971;SDS011;40554;52.122;20.678;2022-12-07T12:56:35;20.27;;;12.93;;
36971;SDS011;40554;52.122;20.678;2022-12-07T13:01:44;20.85;;;12.33;;
36971;SDS011;40554;52.122;20.678;2022-12-07T13:04:02;20.08;;;11.75;;
36971;SDS011;40554;52.122;20.678;2022-12-07T13:06:35;19.30;;;12.33;;
36971;SDS011;40554;52.122;20.678;2022-12-07T13:08:54;19.87;;;13.20;;
36971;SDS011;40554;52.122;20.678;2022-12-07T13:11:16;21.70;;;14.20;;
36971;SDS011;40554;52.122;20.678;2022-12-07T13:13:44;21.80;;;14.30;;
36971;SDS011;40554;52.122;20.678;2022-12-07T13:23:19;21.82;;;13.43;;
36971;SDS011;40554;52.122;20.678;2022-12-07T13:25:44;23.80;;;14.65;;
36971;SDS011;40554;52.122;20.678;2022-12-07T13:28:35;29.75;;;17.90;;
36971;SDS011;40554;52.122;20.678;2022-12-07T13:33:54;24.70;;;15.60;;
36971;SDS011;40554;52.122;20.678;2022-12-07T13:36:33;24.55;;;16.62;;
36971;SDS011;40554;52.122;20.678;2022-12-07T13:38:50;27.20;;;15.88;;
36971;SDS011;40554;52.122;20.678;2022-12-07T13:41:16;27.82;;;17.15;;
36971;SDS011;40554;52.122;20.678;2022-12-07T13:43:42;35.38;;;20.82;;
36971;SDS011;40554;52.122;20.678;2022-12-07T13:46:01;27.02;;;17.90;;
36971;SDS011;40554;52.122;20.678;2022-12-07T13:48:35;31.80;;;18.65;;
36971;SDS011;40554;52.122;20.678;2022-12-07T13:51:02;33.95;;;20.12;;
36971;SDS011;40554;52.122;20.678;2022-12-07T13:53:20;31.52;;;18.23;;
36971;SDS011;40554;52.122;20.678;2022-12-07T13:55:36;32.98;;;18.80;;
36971;SDS011;40554;52.122;20.678;2022-12-07T13:57:58;34.43;;;20.63;;
36971;SDS011;40554;52.122;20.678;2022-12-07T14:00:20;30.12;;;19.07;;
36971;SDS011;40554;52.122;20.678;2022-12-07T14:02:36;33.70;;;21.00;;
36971;SDS011;40554;52.122;20.678;2022-12-07T14:05:15;31.05;;;19.92;;
36971;SDS011;40554;52.122;20.678;2022-12-07T14:07:57;39.70;;;23.92;;
36971;SDS011;40554;52.122;20.678;2022-12-07T14:10:30;37.05;;;22.82;;
36971;SDS011;40554;52.122;20.678;2022-12-07T14:12:49;36.23;;;22.65;;
36971;SDS011;40554;52.122;20.678;2022-12-07T14:15:15;25.97;;;17.65;;
36971;SDS011;40554;52.122;20.678;2022-12-07T14:17:34;30.08;;;18.92;;
36971;SDS011;40554;52.122;20.678;2022-12-07T14:25:00;30.25;;;18.27;;
36971;SDS011;40554;52.122;20.678;2022-12-07T14:27:37;31.50;;;18.60;;
36971;SDS011;40554;52.122;20.678;2022-12-07T14:29:54;27.05;;;17.60;;
36971;SDS011;40554;52.122;20.678;2022-12-07T14:32:21;30.12;;;18.60;;
36971;SDS011;40554;52.122;20.678;2022-12-07T14:34:39;41.85;;;23.77;;
36971;SDS011;40554;52.122;20.678;2022-12-07T14:36:56;37.17;;;23.47;;
36971;SDS011;40554;52.122;20.678;2022-12-07T14:39:12;34.45;;;20.45;;
36971;SDS011;40554;52.122;20.678;2022-12-07T14:41:28;36.00;;;22.65;;
36971;SDS011;40554;52.122;20.678;2022-12-07T14:44:08;33.73;;;23.35;;
36971;SDS011;40554;52.122;20.678;2022-12-07T14:46:28;30.92;;;19.23;;
36971;SDS011;40554;52.122;20.678;2022-12-07T14:48:44;34.35;;;19.60;;
36971;SDS011;40554;52.122;20.678;2022-12-07T14:51:01;31.73;;;18.70;;
36971;SDS011;40554;52.122;20.678;2022-12-07T14:53:18;26.82;;;16.23;;
36971;SDS011;40554;52.122;20.678;2022-12-07T14:55:39;25.45;;;15.18;;
36971;SDS011;40554;52.122;20.678;2022-12-07T14:57:55;24.35;;;15.30;;
36971;SDS011;40554;52.122;20.678;2022-12-07T15:00:14;30.82;;;17.10;;
36971;SDS011;40554;52.122;20.678;2022-12-07T15:02:32;29.42;;;18.10;;
36971;SDS011;40554;52.122;20.678;2022-12-07T15:04:48;27.17;;;17.62;;
36971;SDS011;40554;52.122;20.678;2022-12-07T15:07:05;24.57;;;16.05;;
36971;SDS011;40554;52.122;20.678;2022-12-07T15:09:32;24.50;;;16.05;;
36971;SDS011;40554;52.122;20.678;2022-12-07T15:11:48;27.15;;;17.23;;
36971;SDS011;40554;52.122;20.678;2022-12-07T15:14:04;26.02;;;16.27;;
36971;SDS011;40554;52.122;20.678;2022-12-07T15:16:23;23.00;;;15.85;;
36971;SDS011;40554;52.122;20.678;2022-12-07T15:18:39;27.58;;;16.45;;
36971;SDS011;40554;52.122;20.678;2022-12-07T15:20:56;24.10;;;15.15;;
36971;SDS011;40554;52.122;20.678;2022-12-07T15:23:12;26.93;;;16.45;;
36971;SDS011;40554;52.122;20.678;2022-12-07T15:25:29;27.37;;;16.85;;
36971;SDS011;40554;52.122;20.678;2022-12-07T15:27:45;27.40;;;16.60;;
36971;SDS011;40554;52.122;20.678;2022-12-07T15:30:02;24.55;;;15.40;;
36971;SDS011;40554;52.122;20.678;2022-12-07T15:32:20;27.30;;;16.35;;
36971;SDS011;40554;52.122;20.678;2022-12-07T15:34:38;30.08;;;18.77;;
36971;SDS011;40554;52.122;20.678;2022-12-07T15:36:54;26.57;;;14.93;;
36971;SDS011;40554;52.122;20.678;2022-12-07T15:39:10;22.70;;;14.87;;